sensor_id;sensor_type;location;lat;lon;timestamp;temperature;humidity
66598;DHT22;57424;53.128;6.406;2022-07-06T00:01:14;22.90;50.80
66598;DHT22;57424;53.128;6.406;2022-07-06T00:03:40;22.90;51.00
66598;DHT22;57424;53.128;6.406;2022-07-06T00:06:05;22.90;50.90
66598;DHT22;57424;53.128;6.406;2022-07-06T00:08:31;22.90;51.00
66598;DHT22;57424;53.128;6.406;2022-07-06T00:10:57;22.90;51.00
66598;DHT22;57424;53.128;6.406;2022-07-06T00:13:22;22.90;51.00
66598;DHT22;57424;53.128;6.406;2022-07-06T00:15:48;22.90;51.00
66598;DHT22;57424;53.128;6.406;2022-07-06T00:18:13;22.90;51.10
66598;DHT22;57424;53.128;6.406;2022-07-06T00:20:39;22.90;51.10
66598;DHT22;57424;53.128;6.406;2022-07-06T00:23:04;22.90;51.10
66598;DHT22;57424;53.128;6.406;2022-07-06T00:25:30;22.90;51.10
66598;DHT22;57424;53.128;6.406;2022-07-06T00:27:55;22.90;51.10
66598;DHT22;57424;53.128;6.406;2022-07-06T00:30:22;22.90;51.10
66598;DHT22;57424;53.128;6.406;2022-07-06T00:32:47;22.80;51.00
66598;DHT22;57424;53.128;6.406;2022-07-06T00:35:14;22.80;51.10
66598;DHT22;57424;53.128;6.406;2022-07-06T00:37:39;22.80;51.10
66598;DHT22;57424;53.128;6.406;2022-07-06T00:40:06;22.90;51.10
66598;DHT22;57424;53.128;6.406;2022-07-06T00:42:39;22.80;51.10
66598;DHT22;57424;53.128;6.406;2022-07-06T00:45:05;22.80;51.10
66598;DHT22;57424;53.128;6.406;2022-07-06T00:47:31;22.80;51.10
66598;DHT22;57424;53.128;6.406;2022-07-06T00:49:56;22.80;51.10
66598;DHT22;57424;53.128;6.406;2022-07-06T00:52:41;22.80;51.10
66598;DHT22;57424;53.128;6.406;2022-07-06T00:55:11;22.80;51.10
66598;DHT22;57424;53.128;6.406;2022-07-06T00:57:37;22.80;51.10
66598;DHT22;57424;53.128;6.406;2022-07-06T01:00:04;22.80;51.10
66598;DHT22;57424;53.128;6.406;2022-07-06T01:02:34;22.80;51.20
66598;DHT22;57424;53.128;6.406;2022-07-06T01:05:00;22.80;51.10
66598;DHT22;57424;53.128;6.406;2022-07-06T01:07:26;22.70;51.10
66598;DHT22;57424;53.128;6.406;2022-07-06T01:09:54;22.70;51.10
66598;DHT22;57424;53.128;6.406;2022-07-06T01:12:20;22.70;51.10
66598;DHT22;57424;53.128;6.406;2022-07-06T01:14:46;22.80;51.20
66598;DHT22;57424;53.128;6.406;2022-07-06T01:17:13;22.80;51.20
66598;DHT22;57424;53.128;6.406;2022-07-06T01:19:40;22.70;51.10
66598;DHT22;57424;53.128;6.406;2022-07-06T01:22:06;22.70;51.20
66598;DHT22;57424;53.128;6.406;2022-07-06T01:24:34;22.70;51.10
66598;DHT22;57424;53.128;6.406;2022-07-06T01:26:59;22.70;51.10
66598;DHT22;57424;53.128;6.406;2022-07-06T01:29:25;22.70;51.20
66598;DHT22;57424;53.128;6.406;2022-07-06T01:31:51;22.70;51.20
66598;DHT22;57424;53.128;6.406;2022-07-06T01:34:17;22.70;51.20
66598;DHT22;57424;53.128;6.406;2022-07-06T01:36:43;22.70;51.20
66598;DHT22;57424;53.128;6.406;2022-07-06T01:39:10;22.70;51.20
66598;DHT22;57424;53.128;6.406;2022-07-06T01:41:36;22.70;51.20
66598;DHT22;57424;53.128;6.406;2022-07-06T01:44:02;22.60;51.20
66598;DHT22;57424;53.128;6.406;2022-07-06T01:46:28;22.60;51.10
66598;DHT22;57424;53.128;6.406;2022-07-06T01:48:54;22.70;51.20
66598;DHT22;57424;53.128;6.406;2022-07-06T01:51:19;22.70;51.20
66598;DHT22;57424;53.128;6.406;2022-07-06T01:53:45;22.70;51.30
66598;DHT22;57424;53.128;6.406;2022-07-06T01:56:11;22.60;51.10
66598;DHT22;57424;53.128;6.406;2022-07-06T01:58:37;22.60;51.20
66598;DHT22;57424;53.128;6.406;2022-07-06T02:01:08;22.60;51.20
66598;DHT22;57424;53.128;6.406;2022-07-06T02:03:34;22.70;51.30
66598;DHT22;57424;53.128;6.406;2022-07-06T02:05:59;22.60;51.20
66598;DHT22;57424;53.128;6.406;2022-07-06T02:08:25;22.60;51.20
66598;DHT22;57424;53.128;6.406;2022-07-06T02:10:51;22.60;51.20
66598;DHT22;57424;53.128;6.406;2022-07-06T02:13:16;22.60;51.30
66598;DHT22;57424;53.128;6.406;2022-07-06T02:15:42;22.60;51.20
66598;DHT22;57424;53.128;6.406;2022-07-06T02:18:08;22.60;51.20
66598;DHT22;57424;53.128;6.406;2022-07-06T02:20:33;22.60;51.30
66598;DHT22;57424;53.128;6.406;2022-07-06T02:22:59;22.50;51.20
66598;DHT22;57424;53.128;6.406;2022-07-06T02:25:24;22.60;51.30
66598;DHT22;57424;53.128;6.406;2022-07-06T02:27:50;22.50;51.20
66598;DHT22;57424;53.128;6.406;2022-07-06T02:30:15;22.50;51.20
66598;DHT22;57424;53.128;6.406;2022-07-06T02:32:41;22.50;51.20
66598;DHT22;57424;53.128;6.406;2022-07-06T02:35:07;22.50;51.30
66598;DHT22;57424;53.128;6.406;2022-07-06T02:37:32;22.50;51.90
66598;DHT22;57424;53.128;6.406;2022-07-06T02:39:58;22.50;51.30
66598;DHT22;57424;53.128;6.406;2022-07-06T02:42:23;22.60;52.00
66598;DHT22;57424;53.128;6.406;2022-07-06T02:44:49;22.50;51.20
66598;DHT22;57424;53.128;6.406;2022-07-06T02:47:14;22.50;51.30
66598;DHT22;57424;53.128;6.406;2022-07-06T02:49:40;22.50;51.20
66598;DHT22;57424;53.128;6.406;2022-07-06T02:52:06;22.50;51.30
66598;DHT22;57424;53.128;6.406;2022-07-06T02:54:31;22.50;51.30
66598;DHT22;57424;53.128;6.406;2022-07-06T02:56:57;22.50;51.30
66598;DHT22;57424;53.128;6.406;2022-07-06T02:59:22;22.50;51.30
66598;DHT22;57424;53.128;6.406;2022-07-06T03:01:48;22.50;51.30
66598;DHT22;57424;53.128;6.406;2022-07-06T03:04:13;22.50;51.30
66598;DHT22;57424;53.128;6.406;2022-07-06T03:06:39;22.50;51.30
66598;DHT22;57424;53.128;6.406;2022-07-06T03:09:04;22.50;51.30
66598;DHT22;57424;53.128;6.406;2022-07-06T03:11:30;22.50;51.40
66598;DHT22;57424;53.128;6.406;2022-07-06T03:13:56;22.50;51.30
66598;DHT22;57424;53.128;6.406;2022-07-06T03:16:21;22.50;51.40
66598;DHT22;57424;53.128;6.406;2022-07-06T03:18:47;22.40;51.30
66598;DHT22;57424;53.128;6.406;2022-07-06T03:21:12;22.40;51.30
66598;DHT22;57424;53.128;6.406;2022-07-06T03:23:38;22.40;51.30
66598;DHT22;57424;53.128;6.406;2022-07-06T03:26:03;22.40;51.30
66598;DHT22;57424;53.128;6.406;2022-07-06T03:28:29;22.40;51.30
66598;DHT22;57424;53.128;6.406;2022-07-06T03:30:54;22.40;51.40
66598;DHT22;57424;53.128;6.406;2022-07-06T03:33:20;22.40;52.10
66598;DHT22;57424;53.128;6.406;2022-07-06T03:35:45;22.40;51.40
66598;DHT22;57424;53.128;6.406;2022-07-06T03:38:11;22.40;51.40
66598;DHT22;57424;53.128;6.406;2022-07-06T03:40:37;22.40;51.40
66598;DHT22;57424;53.128;6.406;2022-07-06T03:43:02;22.40;51.40
66598;DHT22;57424;53.128;6.406;2022-07-06T03:45:28;22.40;51.50
66598;DHT22;57424;53.128;6.406;2022-07-06T03:47:53;22.40;51.50
66598;DHT22;57424;53.128;6.406;2022-07-06T03:50:19;22.40;51.50
66598;DHT22;57424;53.128;6.406;2022-07-06T03:52:44;22.40;51.50
66598;DHT22;57424;53.128;6.406;2022-07-06T03:55:11;22.40;51.50
66598;DHT22;57424;53.128;6.406;2022-07-06T03:57:37;22.40;51.50
66598;DHT22;57424;53.128;6.406;2022-07-06T04:00:04;22.40;51.40
66598;DHT22;57424;53.128;6.406;2022-07-06T04:02:30;22.40;51.50
66598;DHT22;57424;53.128;6.406;2022-07-06T04:04:55;22.30;51.40
66598;DHT22;57424;53.128;6.406;2022-07-06T04:07:21;22.30;51.40
66598;DHT22;57424;53.128;6.406;2022-07-06T04:09:47;22.40;51.50
66598;DHT22;57424;53.128;6.406;2022-07-06T04:12:12;22.40;51.50
66598;DHT22;57424;53.128;6.406;2022-07-06T04:14:38;22.30;51.40
66598;DHT22;57424;53.128;6.406;2022-07-06T04:17:04;22.30;52.10
66598;DHT22;57424;53.128;6.406;2022-07-06T04:19:50;22.30;51.40
66598;DHT22;57424;53.128;6.406;2022-07-06T04:22:16;22.30;51.50
66598;DHT22;57424;53.128;6.406;2022-07-06T04:24:42;22.30;51.50
66598;DHT22;57424;53.128;6.406;2022-07-06T04:27:07;22.30;51.50
66598;DHT22;57424;53.128;6.406;2022-07-06T04:29:33;22.30;51.60
66598;DHT22;57424;53.128;6.406;2022-07-06T04:31:58;22.30;51.60
66598;DHT22;57424;53.128;6.406;2022-07-06T04:34:24;22.30;51.70
66598;DHT22;57424;53.128;6.406;2022-07-06T04:36:49;22.30;51.70
66598;DHT22;57424;53.128;6.406;2022-07-06T04:39:15;22.30;51.70
66598;DHT22;57424;53.128;6.406;2022-07-06T04:41:40;22.30;51.70
66598;DHT22;57424;53.128;6.406;2022-07-06T04:44:06;22.30;51.80
66598;DHT22;57424;53.128;6.406;2022-07-06T04:46:32;22.30;51.80
66598;DHT22;57424;53.128;6.406;2022-07-06T04:48:57;22.30;51.80
66598;DHT22;57424;53.128;6.406;2022-07-06T04:51:23;22.30;51.80
66598;DHT22;57424;53.128;6.406;2022-07-06T04:53:48;22.30;51.90
66598;DHT22;57424;53.128;6.406;2022-07-06T04:56:14;22.30;51.90
66598;DHT22;57424;53.128;6.406;2022-07-06T04:58:39;22.30;51.90
66598;DHT22;57424;53.128;6.406;2022-07-06T05:01:05;22.30;52.00
66598;DHT22;57424;53.128;6.406;2022-07-06T05:03:30;22.30;52.20
66598;DHT22;57424;53.128;6.406;2022-07-06T05:05:56;22.30;52.20
66598;DHT22;57424;53.128;6.406;2022-07-06T05:08:22;22.30;52.20
66598;DHT22;57424;53.128;6.406;2022-07-06T05:10:48;22.30;52.20
66598;DHT22;57424;53.128;6.406;2022-07-06T05:13:14;22.30;52.30
66598;DHT22;57424;53.128;6.406;2022-07-06T05:15:39;22.30;52.30
66598;DHT22;57424;53.128;6.406;2022-07-06T05:18:05;22.30;52.20
66598;DHT22;57424;53.128;6.406;2022-07-06T05:20:30;22.40;52.20
66598;DHT22;57424;53.128;6.406;2022-07-06T05:22:57;22.40;52.10
66598;DHT22;57424;53.128;6.406;2022-07-06T05:25:23;22.40;52.00
66598;DHT22;57424;53.128;6.406;2022-07-06T05:27:48;22.30;51.90
66598;DHT22;57424;53.128;6.406;2022-07-06T05:30:14;22.30;51.90
66598;DHT22;57424;53.128;6.406;2022-07-06T05:32:40;22.30;51.80
66598;DHT22;57424;53.128;6.406;2022-07-06T05:35:07;22.30;51.80
66598;DHT22;57424;53.128;6.406;2022-07-06T05:37:33;22.30;51.80
66598;DHT22;57424;53.128;6.406;2022-07-06T05:39:58;22.30;51.80
66598;DHT22;57424;53.128;6.406;2022-07-06T05:42:24;22.30;51.80
66598;DHT22;57424;53.128;6.406;2022-07-06T05:44:49;22.30;51.80
66598;DHT22;57424;53.128;6.406;2022-07-06T05:47:15;22.30;51.80
66598;DHT22;57424;53.128;6.406;2022-07-06T05:49:59;22.30;51.70
66598;DHT22;57424;53.128;6.406;2022-07-06T05:52:44;22.30;51.70
66598;DHT22;57424;53.128;6.406;2022-07-06T05:55:11;22.20;51.70
66598;DHT22;57424;53.128;6.406;2022-07-06T05:57:38;22.30;51.70
66598;DHT22;57424;53.128;6.406;2022-07-06T06:00:07;22.30;51.80
66598;DHT22;57424;53.128;6.406;2022-07-06T06:02:37;22.20;51.60
66598;DHT22;57424;53.128;6.406;2022-07-06T06:05:03;22.20;51.70
66598;DHT22;57424;53.128;6.406;2022-07-06T06:07:29;22.20;51.70
66598;DHT22;57424;53.128;6.406;2022-07-06T06:09:54;22.20;51.70
66598;DHT22;57424;53.128;6.406;2022-07-06T06:12:20;22.20;51.70
66598;DHT22;57424;53.128;6.406;2022-07-06T06:14:45;22.20;51.70
66598;DHT22;57424;53.128;6.406;2022-07-06T06:17:11;22.20;51.80
66598;DHT22;57424;53.128;6.406;2022-07-06T06:19:36;22.30;51.80
66598;DHT22;57424;53.128;6.406;2022-07-06T06:22:02;22.20;51.80
66598;DHT22;57424;53.128;6.406;2022-07-06T06:24:28;22.20;51.80
66598;DHT22;57424;53.128;6.406;2022-07-06T06:26:54;22.20;51.80
66598;DHT22;57424;53.128;6.406;2022-07-06T06:29:19;22.20;51.80
66598;DHT22;57424;53.128;6.406;2022-07-06T06:31:45;22.20;51.80
66598;DHT22;57424;53.128;6.406;2022-07-06T06:34:10;22.20;51.70
66598;DHT22;57424;53.128;6.406;2022-07-06T06:36:36;22.20;51.80
66598;DHT22;57424;53.128;6.406;2022-07-06T06:39:01;22.20;51.70
66598;DHT22;57424;53.128;6.406;2022-07-06T06:41:27;22.20;51.80
66598;DHT22;57424;53.128;6.406;2022-07-06T06:43:53;22.20;51.70
66598;DHT22;57424;53.128;6.406;2022-07-06T06:46:19;22.20;51.70
66598;DHT22;57424;53.128;6.406;2022-07-06T06:48:44;22.20;51.80
66598;DHT22;57424;53.128;6.406;2022-07-06T06:51:10;22.20;51.70
66598;DHT22;57424;53.128;6.406;2022-07-06T06:53:35;22.20;51.70
66598;DHT22;57424;53.128;6.406;2022-07-06T06:56:01;22.20;51.70
66598;DHT22;57424;53.128;6.406;2022-07-06T06:58:26;22.20;51.70
66598;DHT22;57424;53.128;6.406;2022-07-06T07:00:53;22.20;51.70
66598;DHT22;57424;53.128;6.406;2022-07-06T07:03:19;22.20;51.80
66598;DHT22;57424;53.128;6.406;2022-07-06T07:05:44;22.30;51.90
66598;DHT22;57424;53.128;6.406;2022-07-06T07:08:10;22.30;51.90
66598;DHT22;57424;53.128;6.406;2022-07-06T07:10:35;22.40;51.90
66598;DHT22;57424;53.128;6.406;2022-07-06T07:13:01;22.40;51.90
66598;DHT22;57424;53.128;6.406;2022-07-06T07:15:27;22.50;51.80
66598;DHT22;57424;53.128;6.406;2022-07-06T07:17:53;22.50;51.70
66598;DHT22;57424;53.128;6.406;2022-07-06T07:20:19;22.60;51.50
66598;DHT22;57424;53.128;6.406;2022-07-06T07:22:44;22.70;51.60
66598;DHT22;57424;53.128;6.406;2022-07-06T07:25:10;22.70;51.60
66598;DHT22;57424;53.128;6.406;2022-07-06T07:27:36;22.80;51.40
66598;DHT22;57424;53.128;6.406;2022-07-06T07:30:02;22.90;51.30
66598;DHT22;57424;53.128;6.406;2022-07-06T07:32:28;22.90;51.10
66598;DHT22;57424;53.128;6.406;2022-07-06T07:34:53;23.00;51.00
66598;DHT22;57424;53.128;6.406;2022-07-06T07:37:19;23.10;50.90
66598;DHT22;57424;53.128;6.406;2022-07-06T07:39:44;23.20;50.80
66598;DHT22;57424;53.128;6.406;2022-07-06T07:42:10;23.20;50.60
66598;DHT22;57424;53.128;6.406;2022-07-06T07:44:36;23.40;50.20
66598;DHT22;57424;53.128;6.406;2022-07-06T07:47:01;23.50;49.80
66598;DHT22;57424;53.128;6.406;2022-07-06T07:49:27;23.60;49.60
66598;DHT22;57424;53.128;6.406;2022-07-06T07:51:53;23.70;49.40
66598;DHT22;57424;53.128;6.406;2022-07-06T07:54:19;23.80;49.00
66598;DHT22;57424;53.128;6.406;2022-07-06T07:56:44;24.00;48.60
66598;DHT22;57424;53.128;6.406;2022-07-06T07:59:10;24.20;48.20
66598;DHT22;57424;53.128;6.406;2022-07-06T08:01:36;24.40;47.80
66598;DHT22;57424;53.128;6.406;2022-07-06T08:04:02;24.50;47.30
66598;DHT22;57424;53.128;6.406;2022-07-06T08:06:28;24.70;47.00
66598;DHT22;57424;53.128;6.406;2022-07-06T08:08:53;24.80;46.70
66598;DHT22;57424;53.128;6.406;2022-07-06T08:11:19;24.90;46.50
66598;DHT22;57424;53.128;6.406;2022-07-06T08:13:45;25.00;46.30
66598;DHT22;57424;53.128;6.406;2022-07-06T08:16:10;25.00;46.00
66598;DHT22;57424;53.128;6.406;2022-07-06T08:18:36;25.10;46.00
66598;DHT22;57424;53.128;6.406;2022-07-06T08:21:02;25.20;45.90
66598;DHT22;57424;53.128;6.406;2022-07-06T08:23:28;25.20;45.80
66598;DHT22;57424;53.128;6.406;2022-07-06T08:25:54;25.20;45.60
66598;DHT22;57424;53.128;6.406;2022-07-06T08:28:19;25.20;45.60
66598;DHT22;57424;53.128;6.406;2022-07-06T08:30:45;25.20;45.50
66598;DHT22;57424;53.128;6.406;2022-07-06T08:33:10;25.20;45.60
66598;DHT22;57424;53.128;6.406;2022-07-06T08:35:36;25.20;45.60
66598;DHT22;57424;53.128;6.406;2022-07-06T08:38:02;25.20;45.40
66598;DHT22;57424;53.128;6.406;2022-07-06T08:40:34;25.30;45.40
66598;DHT22;57424;53.128;6.406;2022-07-06T08:43:02;25.40;45.40
66598;DHT22;57424;53.128;6.406;2022-07-06T08:45:29;25.40;45.20
66598;DHT22;57424;53.128;6.406;2022-07-06T08:47:58;25.50;45.20
66598;DHT22;57424;53.128;6.406;2022-07-06T08:50:24;25.50;45.00
66598;DHT22;57424;53.128;6.406;2022-07-06T08:52:50;25.60;45.00
66598;DHT22;57424;53.128;6.406;2022-07-06T08:55:17;25.70;44.90
66598;DHT22;57424;53.128;6.406;2022-07-06T08:57:46;25.70;45.00
66598;DHT22;57424;53.128;6.406;2022-07-06T09:00:13;25.70;45.30
66598;DHT22;57424;53.128;6.406;2022-07-06T09:02:40;25.80;45.50
66598;DHT22;57424;53.128;6.406;2022-07-06T09:05:06;25.80;45.60
66598;DHT22;57424;53.128;6.406;2022-07-06T09:07:34;25.80;45.80
66598;DHT22;57424;53.128;6.406;2022-07-06T09:10:00;25.80;45.80
66598;DHT22;57424;53.128;6.406;2022-07-06T09:12:27;25.80;45.70
66598;DHT22;57424;53.128;6.406;2022-07-06T09:14:55;25.90;45.70
66598;DHT22;57424;53.128;6.406;2022-07-06T09:17:25;25.90;45.70
66598;DHT22;57424;53.128;6.406;2022-07-06T09:19:52;25.90;45.80
66598;DHT22;57424;53.128;6.406;2022-07-06T09:22:29;25.90;46.00
66598;DHT22;57424;53.128;6.406;2022-07-06T09:25:13;25.90;46.00
66598;DHT22;57424;53.128;6.406;2022-07-06T09:27:49;25.90;45.90
66598;DHT22;57424;53.128;6.406;2022-07-06T09:30:21;26.00;45.80
66598;DHT22;57424;53.128;6.406;2022-07-06T09:32:50;26.00;45.80
66598;DHT22;57424;53.128;6.406;2022-07-06T09:38:03;26.00;45.80
66598;DHT22;57424;53.128;6.406;2022-07-06T09:40:31;26.00;45.80
66598;DHT22;57424;53.128;6.406;2022-07-06T09:43:17;26.00;45.70
66598;DHT22;57424;53.128;6.406;2022-07-06T09:45:46;25.90;45.70
66598;DHT22;57424;53.128;6.406;2022-07-06T09:48:15;25.90;45.70
66598;DHT22;57424;53.128;6.406;2022-07-06T09:50:58;25.90;46.60
66598;DHT22;57424;53.128;6.406;2022-07-06T09:53:25;25.90;46.00
66598;DHT22;57424;53.128;6.406;2022-07-06T09:55:53;25.90;46.00
66598;DHT22;57424;53.128;6.406;2022-07-06T09:58:20;25.90;45.90
66598;DHT22;57424;53.128;6.406;2022-07-06T10:00:46;25.90;45.90
66598;DHT22;57424;53.128;6.406;2022-07-06T10:03:15;25.90;46.00
66598;DHT22;57424;53.128;6.406;2022-07-06T10:05:44;25.90;46.00
66598;DHT22;57424;53.128;6.406;2022-07-06T10:08:13;25.90;46.10
66598;DHT22;57424;53.128;6.406;2022-07-06T10:10:41;25.90;46.10
66598;DHT22;57424;53.128;6.406;2022-07-06T10:13:08;25.90;46.10
66598;DHT22;57424;53.128;6.406;2022-07-06T10:15:35;25.90;46.10
66598;DHT22;57424;53.128;6.406;2022-07-06T10:18:02;25.90;46.10
66598;DHT22;57424;53.128;6.406;2022-07-06T10:20:30;25.90;46.20
66598;DHT22;57424;53.128;6.406;2022-07-06T10:22:59;25.90;46.10
66598;DHT22;57424;53.128;6.406;2022-07-06T10:25:25;25.90;46.00
66598;DHT22;57424;53.128;6.406;2022-07-06T10:27:56;25.80;46.00
66598;DHT22;57424;53.128;6.406;2022-07-06T10:30:22;25.90;46.00
66598;DHT22;57424;53.128;6.406;2022-07-06T10:32:50;25.80;45.80
66598;DHT22;57424;53.128;6.406;2022-07-06T10:35:19;25.80;45.90
66598;DHT22;57424;53.128;6.406;2022-07-06T10:37:46;25.80;45.90
66598;DHT22;57424;53.128;6.406;2022-07-06T10:40:38;25.80;45.80
66598;DHT22;57424;53.128;6.406;2022-07-06T10:43:23;25.80;45.90
66598;DHT22;57424;53.128;6.406;2022-07-06T10:50:49;25.70;46.00
66598;DHT22;57424;53.128;6.406;2022-07-06T10:53:26;25.50;46.20
66598;DHT22;57424;53.128;6.406;2022-07-06T10:55:54;25.40;46.50
66598;DHT22;57424;53.128;6.406;2022-07-06T10:59:09;25.20;46.80
66598;DHT22;57424;53.128;6.406;2022-07-06T11:01:28;25.10;47.00
66598;DHT22;57424;53.128;6.406;2022-07-06T11:06:24;24.90;47.50
66598;DHT22;57424;53.128;6.406;2022-07-06T11:09:01;24.80;47.70
66598;DHT22;57424;53.128;6.406;2022-07-06T11:14:28;24.60;48.00
66598;DHT22;57424;53.128;6.406;2022-07-06T11:17:01;24.50;48.00
66598;DHT22;57424;53.128;6.406;2022-07-06T11:19:27;24.50;48.20
66598;DHT22;57424;53.128;6.406;2022-07-06T11:21:54;24.40;48.30
66598;DHT22;57424;53.128;6.406;2022-07-06T11:24:27;24.30;48.20
66598;DHT22;57424;53.128;6.406;2022-07-06T11:26:54;24.30;48.10
66598;DHT22;57424;53.128;6.406;2022-07-06T11:29:21;24.20;48.00
66598;DHT22;57424;53.128;6.406;2022-07-06T11:31:49;24.20;48.00
66598;DHT22;57424;53.128;6.406;2022-07-06T11:34:22;24.20;47.90
66598;DHT22;57424;53.128;6.406;2022-07-06T11:36:54;24.20;47.80
66598;DHT22;57424;53.128;6.406;2022-07-06T11:39:19;24.10;47.70
66598;DHT22;57424;53.128;6.406;2022-07-06T11:41:45;24.10;47.70
66598;DHT22;57424;53.128;6.406;2022-07-06T11:44:10;24.10;47.60
66598;DHT22;57424;53.128;6.406;2022-07-06T11:46:36;24.10;47.60
66598;DHT22;57424;53.128;6.406;2022-07-06T11:49:04;24.00;47.50
66598;DHT22;57424;53.128;6.406;2022-07-06T11:51:34;24.00;47.40
66598;DHT22;57424;53.128;6.406;2022-07-06T11:54:06;23.90;47.30
66598;DHT22;57424;53.128;6.406;2022-07-06T11:56:32;23.90;47.20
66598;DHT22;57424;53.128;6.406;2022-07-06T11:58:59;23.90;47.20
66598;DHT22;57424;53.128;6.406;2022-07-06T12:01:26;23.90;47.20
66598;DHT22;57424;53.128;6.406;2022-07-06T12:03:53;23.90;47.20
66598;DHT22;57424;53.128;6.406;2022-07-06T12:06:21;23.80;47.10
66598;DHT22;57424;53.128;6.406;2022-07-06T12:08:48;23.80;47.20
66598;DHT22;57424;53.128;6.406;2022-07-06T12:13:49;23.80;47.10
66598;DHT22;57424;53.128;6.406;2022-07-06T12:16:15;23.80;47.20
66598;DHT22;57424;53.128;6.406;2022-07-06T12:18:45;23.70;47.20
66598;DHT22;57424;53.128;6.406;2022-07-06T12:21:14;23.80;47.30
66598;DHT22;57424;53.128;6.406;2022-07-06T12:23:44;23.70;47.20
66598;DHT22;57424;53.128;6.406;2022-07-06T12:26:10;23.70;47.20
66598;DHT22;57424;53.128;6.406;2022-07-06T12:28:36;23.70;47.20
66598;DHT22;57424;53.128;6.406;2022-07-06T12:31:02;23.70;47.20
66598;DHT22;57424;53.128;6.406;2022-07-06T12:33:28;23.70;47.20
66598;DHT22;57424;53.128;6.406;2022-07-06T12:35:54;23.70;47.20
66598;DHT22;57424;53.128;6.406;2022-07-06T12:38:27;23.60;47.20
66598;DHT22;57424;53.128;6.406;2022-07-06T12:40:53;23.60;47.40
66598;DHT22;57424;53.128;6.406;2022-07-06T12:43:41;23.70;47.70
66598;DHT22;57424;53.128;6.406;2022-07-06T12:46:26;23.70;48.10
66598;DHT22;57424;53.128;6.406;2022-07-06T12:48:56;23.70;48.40
66598;DHT22;57424;53.128;6.406;2022-07-06T12:51:22;23.70;48.60
66598;DHT22;57424;53.128;6.406;2022-07-06T12:53:48;23.70;48.80
66598;DHT22;57424;53.128;6.406;2022-07-06T12:56:14;23.70;48.60
66598;DHT22;57424;53.128;6.406;2022-07-06T12:59:00;23.70;48.20
66598;DHT22;57424;53.128;6.406;2022-07-06T13:01:26;23.70;47.70
66598;DHT22;57424;53.128;6.406;2022-07-06T13:03:58;23.60;47.50
66598;DHT22;57424;53.128;6.406;2022-07-06T13:06:31;23.60;47.30
66598;DHT22;57424;53.128;6.406;2022-07-06T13:08:57;23.70;47.40
66598;DHT22;57424;53.128;6.406;2022-07-06T13:11:23;23.60;47.20
66598;DHT22;57424;53.128;6.406;2022-07-06T13:13:48;23.60;46.90
66598;DHT22;57424;53.128;6.406;2022-07-06T13:16:14;23.60;46.70
66598;DHT22;57424;53.128;6.406;2022-07-06T13:18:39;23.60;46.60
66598;DHT22;57424;53.128;6.406;2022-07-06T13:21:05;23.50;47.20
66598;DHT22;57424;53.128;6.406;2022-07-06T13:23:30;23.60;46.50
66598;DHT22;57424;53.128;6.406;2022-07-06T13:25:56;23.50;46.50
66598;DHT22;57424;53.128;6.406;2022-07-06T13:28:22;23.50;46.60
66598;DHT22;57424;53.128;6.406;2022-07-06T13:30:47;23.50;46.50
66598;DHT22;57424;53.128;6.406;2022-07-06T13:33:13;23.50;46.40
66598;DHT22;57424;53.128;6.406;2022-07-06T13:35:38;23.50;46.30
66598;DHT22;57424;53.128;6.406;2022-07-06T13:38:04;23.50;46.30
66598;DHT22;57424;53.128;6.406;2022-07-06T13:40:30;23.40;46.30
66598;DHT22;57424;53.128;6.406;2022-07-06T13:42:56;23.40;46.30
66598;DHT22;57424;53.128;6.406;2022-07-06T13:45:22;23.40;46.40
66598;DHT22;57424;53.128;6.406;2022-07-06T13:47:48;23.40;46.30
66598;DHT22;57424;53.128;6.406;2022-07-06T13:50:13;23.40;46.30
66598;DHT22;57424;53.128;6.406;2022-07-06T13:52:38;23.40;46.20
66598;DHT22;57424;53.128;6.406;2022-07-06T13:55:05;23.30;46.10
66598;DHT22;57424;53.128;6.406;2022-07-06T13:57:31;23.40;46.10
66598;DHT22;57424;53.128;6.406;2022-07-06T13:59:57;23.30;46.00
66598;DHT22;57424;53.128;6.406;2022-07-06T14:02:22;23.30;46.00
66598;DHT22;57424;53.128;6.406;2022-07-06T14:04:48;23.30;46.10
66598;DHT22;57424;53.128;6.406;2022-07-06T14:07:13;23.30;46.00
66598;DHT22;57424;53.128;6.406;2022-07-06T14:09:39;23.20;45.70
66598;DHT22;57424;53.128;6.406;2022-07-06T14:12:05;23.20;45.70
66598;DHT22;57424;53.128;6.406;2022-07-06T14:14:30;23.30;45.80
66598;DHT22;57424;53.128;6.406;2022-07-06T14:16:56;23.20;46.10
66598;DHT22;57424;53.128;6.406;2022-07-06T14:19:22;23.20;46.40
66598;DHT22;57424;53.128;6.406;2022-07-06T14:21:48;23.20;46.90
66598;DHT22;57424;53.128;6.406;2022-07-06T14:24:14;23.20;46.90
66598;DHT22;57424;53.128;6.406;2022-07-06T14:26:40;23.20;47.00
66598;DHT22;57424;53.128;6.406;2022-07-06T14:29:05;23.30;47.20
66598;DHT22;57424;53.128;6.406;2022-07-06T14:31:31;23.30;47.60
66598;DHT22;57424;53.128;6.406;2022-07-06T14:33:57;23.30;47.50
66598;DHT22;57424;53.128;6.406;2022-07-06T14:36:22;23.40;47.40
66598;DHT22;57424;53.128;6.406;2022-07-06T14:38:48;23.50;47.30
66598;DHT22;57424;53.128;6.406;2022-07-06T14:41:13;23.40;47.30
66598;DHT22;57424;53.128;6.406;2022-07-06T14:43:39;23.50;47.40
66598;DHT22;57424;53.128;6.406;2022-07-06T14:46:05;23.50;47.40
66598;DHT22;57424;53.128;6.406;2022-07-06T14:48:30;23.50;47.50
66598;DHT22;57424;53.128;6.406;2022-07-06T14:50:56;23.50;47.50
66598;DHT22;57424;53.128;6.406;2022-07-06T14:53:23;23.50;47.60
66598;DHT22;57424;53.128;6.406;2022-07-06T14:55:48;23.50;47.60
66598;DHT22;57424;53.128;6.406;2022-07-06T14:58:14;23.50;47.60
66598;DHT22;57424;53.128;6.406;2022-07-06T15:00:46;23.50;47.70
66598;DHT22;57424;53.128;6.406;2022-07-06T15:03:11;23.50;47.80
66598;DHT22;57424;53.128;6.406;2022-07-06T15:05:37;23.50;47.90
66598;DHT22;57424;53.128;6.406;2022-07-06T15:08:04;23.50;47.90
66598;DHT22;57424;53.128;6.406;2022-07-06T15:10:30;23.50;47.80
66598;DHT22;57424;53.128;6.406;2022-07-06T15:12:55;23.50;48.00
66598;DHT22;57424;53.128;6.406;2022-07-06T15:15:22;23.50;47.90
66598;DHT22;57424;53.128;6.406;2022-07-06T15:17:47;23.40;48.70
66598;DHT22;57424;53.128;6.406;2022-07-06T15:20:13;23.50;48.00
66598;DHT22;57424;53.128;6.406;2022-07-06T15:22:38;23.50;48.10
66598;DHT22;57424;53.128;6.406;2022-07-06T15:25:04;23.40;48.00
66598;DHT22;57424;53.128;6.406;2022-07-06T15:27:30;23.40;48.10
66598;DHT22;57424;53.128;6.406;2022-07-06T15:29:56;23.40;48.10
66598;DHT22;57424;53.128;6.406;2022-07-06T15:32:22;23.40;48.10
66598;DHT22;57424;53.128;6.406;2022-07-06T15:34:48;23.40;48.20
66598;DHT22;57424;53.128;6.406;2022-07-06T15:37:13;23.40;48.20
66598;DHT22;57424;53.128;6.406;2022-07-06T15:39:39;23.50;48.30
66598;DHT22;57424;53.128;6.406;2022-07-06T15:42:05;23.40;48.20
66598;DHT22;57424;53.128;6.406;2022-07-06T15:44:31;23.40;48.20